Time;durP1;ratioP1;P1;durP2;ratioP2;P2;SDS_P1;SDS_P2;PMS_P1;PMS_P2;Temp;Humidity;BMP_temperature;BMP_pressure;BME280_temperature;BME280_humidity;BME280_pressure;Samples;Min_cycle;Max_cycle;Signal;HPM_P1;HPM_P2
2022/11/18 00:01:55;;;;;;;2.97;2.77;;;;;;;;;;4963309;28;20281;-63
2022/11/18 00:04:24;;;;;;;2.83;2.53;;;;;;;;;;4965479;28;20204;-63
2022/11/18 00:06:51;;;;;;;2.83;2.43;;;;;;;;;;4966900;28;20223;-63
2022/11/18 00:09:18;;;;;;;3.60;2.60;;;;;;;;;;4966841;28;20204;-63
2022/11/18 00:14:32;;;;;;;2.20;1.93;;;;;;;;;;4981313;28;20840;-63
2022/11/18 00:17:01;;;;;;;1.60;1.50;;;;;;;;;;4981888;28;20315;-63
2022/11/18 00:19:30;;;;;;;1.13;1.07;;;;;;;;;;4958071;28;20231;-63
2022/11/18 00:21:58;;;;;;;1.50;1.40;;;;;;;;;;4972416;28;20231;-62
2022/11/18 00:24:26;;;;;;;1.13;1.00;;;;;;;;;;4979828;28;20207;-62
2022/11/18 00:26:53;;;;;;;1.00;1.00;;;;;;;;;;4984625;28;20240;-62
2022/11/18 00:29:21;;;;;;;0.90;0.87;;;;;;;;;;4998897;28;20318;-62
2022/11/18 00:31:49;;;;;;;1.60;1.50;;;;;;;;;;4982074;28;20273;-63
2022/11/18 00:34:17;;;;;;;1.53;1.43;;;;;;;;;;4971120;28;20286;-63
2022/11/18 00:36:45;;;;;;;3.10;1.90;;;;;;;;;;4967892;28;20225;-63
2022/11/18 00:39:14;;;;;;;1.90;1.80;;;;;;;;;;4982121;28;20211;-63
2022/11/18 00:44:28;;;;;;;2.97;2.63;;;;;;;;;;4986151;28;20273;-63
2022/11/18 00:46:58;;;;;;;2.20;2.00;;;;;;;;;;4964233;28;20231;-62
2022/11/18 00:49:26;;;;;;;3.00;2.07;;;;;;;;;;4963560;28;20227;-63
2022/11/18 00:51:54;;;;;;;2.37;2.00;;;;;;;;;;4974079;28;20242;-62
2022/11/18 00:54:21;;;;;;;1.60;1.50;;;;;;;;;;4977963;28;20207;-62
2022/11/18 00:56:48;;;;;;;1.70;1.60;;;;;;;;;;4981802;28;20258;-63
2022/11/18 00:59:16;;;;;;;2.03;1.80;;;;;;;;;;4981800;28;20648;-63
2022/11/18 01:01:43;;;;;;;2.73;1.90;;;;;;;;;;4988990;28;20618;-63
2022/11/18 01:04:11;;;;;;;2.37;1.93;;;;;;;;;;4975543;28;20262;-63
2022/11/18 01:06:38;;;;;;;2.67;1.90;;;;;;;;;;4958810;28;20302;-62
2022/11/18 01:09:05;;;;;;;2.07;1.87;;;;;;;;;;4959380;28;21092;-62
2022/11/18 01:14:19;;;;;;;1.87;1.73;;;;;;;;;;4980918;28;20669;-63
2022/11/18 01:16:50;;;;;;;2.27;1.77;;;;;;;;;;4963786;28;20222;-63
2022/11/18 01:19:18;;;;;;;2.40;1.97;;;;;;;;;;4961342;28;20216;-62
2022/11/18 01:21:45;;;;;;;1.57;1.43;;;;;;;;;;4968754;28;20221;-63
2022/11/18 01:24:13;;;;;;;1.10;1.10;;;;;;;;;;4968304;28;20299;-62
2022/11/18 01:26:40;;;;;;;3.40;1.50;;;;;;;;;;4964438;28;20657;-63
2022/11/18 01:29:07;;;;;;;2.30;1.23;;;;;;;;;;4966074;28;20507;-63
2022/11/18 01:31:35;;;;;;;0.90;0.90;;;;;;;;;;4962854;28;20661;-63
2022/11/18 01:34:21;;;;;;;1.07;1.07;;;;;;;;;;4968123;28;20215;-63
2022/11/18 01:36:52;;;;;;;1.10;1.00;;;;;;;;;;4957814;28;20212;-63
2022/11/18 01:39:19;;;;;;;1.00;1.00;;;;;;;;;;4959084;28;20632;-63
2022/11/18 01:41:46;;;;;;;0.90;0.90;;;;;;;;;;4957276;28;20265;-63
2022/11/18 01:44:33;;;;;;;0.70;0.70;;;;;;;;;;4967520;28;20216;-64
2022/11/18 01:47:00;;;;;;;0.90;0.80;;;;;;;;;;4958450;28;20235;-64
2022/11/18 01:49:27;;;;;;;0.70;0.70;;;;;;;;;;4956756;28;20218;-63
2022/11/18 01:51:56;;;;;;;0.70;0.70;;;;;;;;;;4959867;28;20382;-63
2022/11/18 01:54:35;;;;;;;0.90;0.90;;;;;;;;;;4952945;28;20208;-63
2022/11/18 01:57:05;;;;;;;0.90;0.90;;;;;;;;;;4955151;28;20215;-63
2022/11/18 01:59:34;;;;;;;1.00;1.00;;;;;;;;;;4962158;28;20328;-63
2022/11/18 02:02:05;;;;;;;1.10;1.10;;;;;;;;;;4955377;28;20269;-63
2022/11/18 02:04:33;;;;;;;1.70;1.60;;;;;;;;;;4965743;28;20231;-63
2022/11/18 02:07:01;;;;;;;1.83;1.60;;;;;;;;;;4976563;28;20226;-63
2022/11/18 02:09:28;;;;;;;5.07;3.90;;;;;;;;;;4964011;28;20211;-63
2022/11/18 02:11:56;;;;;;;11.13;7.67;;;;;;;;;;4966725;28;20858;-63
2022/11/18 02:14:23;;;;;;;22.87;14.93;;;;;;;;;;4968655;28;20708;-64
2022/11/18 02:16:58;;;;;;;24.30;16.50;;;;;;;;;;4964613;28;20238;-63
2022/11/18 02:19:25;;;;;;;3.07;2.83;;;;;;;;;;4962993;28;20203;-63
2022/11/18 02:21:53;;;;;;;2.37;1.40;;;;;;;;;;4991170;28;20224;-63
2022/11/18 02:24:47;;;;;;;1.50;1.40;;;;;;;;;;4997887;28;20337;-61
2022/11/18 02:27:48;;;;;;;1.10;1.10;;;;;;;;;;4978836;28;20224;-63
2022/11/18 02:30:16;;;;;;;1.27;1.27;;;;;;;;;;4985563;28;20211;-63
2022/11/18 02:32:44;;;;;;;2.00;1.90;;;;;;;;;;4973149;28;20232;-64
2022/11/18 02:35:17;;;;;;;1.27;1.27;;;;;;;;;;4959624;28;20337;-62
2022/11/18 02:37:56;;;;;;;1.30;1.30;;;;;;;;;;4956258;28;20212;-62
2022/11/18 02:40:25;;;;;;;1.10;1.10;;;;;;;;;;4964624;28;20230;-63
2022/11/18 02:43:00;;;;;;;2.57;2.40;;;;;;;;;;4965554;28;20330;-62
2022/11/18 02:45:28;;;;;;;2.10;2.00;;;;;;;;;;4969083;28;20250;-63
2022/11/18 02:47:57;;;;;;;1.63;1.53;;;;;;;;;;4963671;28;20225;-62
2022/11/18 02:50:26;;;;;;;1.40;1.30;;;;;;;;;;4958443;28;20203;-62
2022/11/18 02:52:55;;;;;;;1.40;1.30;;;;;;;;;;4968075;28;20316;-63
2022/11/18 02:55:25;;;;;;;1.10;1.10;;;;;;;;;;4955758;28;20214;-64
2022/11/18 02:57:53;;;;;;;1.00;1.00;;;;;;;;;;4955846;28;20615;-63
2022/11/18 03:00:20;;;;;;;2.50;2.40;;;;;;;;;;4963388;28;20211;-62
2022/11/18 03:02:49;;;;;;;1.10;1.10;;;;;;;;;;4965093;28;20243;-63
2022/11/18 03:05:25;;;;;;;1.00;1.00;;;;;;;;;;4954004;28;21002;-62
2022/11/18 03:07:56;;;;;;;0.80;0.80;;;;;;;;;;4960182;28;20373;-62
2022/11/18 03:10:25;;;;;;;1.20;1.20;;;;;;;;;;4962555;28;20211;-62
2022/11/18 03:13:05;;;;;;;0.73;0.73;;;;;;;;;;4963788;28;20593;-62
2022/11/18 03:15:34;;;;;;;0.73;0.73;;;;;;;;;;4959065;28;20669;-63
2022/11/18 03:18:10;;;;;;;0.90;0.90;;;;;;;;;;4959294;28;20278;-63
2022/11/18 03:20:38;;;;;;;0.80;0.80;;;;;;;;;;4948855;28;20290;-63
2022/11/18 03:23:11;;;;;;;0.90;0.90;;;;;;;;;;4960043;28;20250;-61
2022/11/18 03:25:49;;;;;;;0.60;0.60;;;;;;;;;;4976423;28;20219;-61
2022/11/18 03:28:25;;;;;;;0.80;0.80;;;;;;;;;;4959541;28;20375;-61
2022/11/18 03:31:11;;;;;;;0.60;0.60;;;;;;;;;;4959363;28;20203;-63
2022/11/18 03:33:42;;;;;;;0.80;0.80;;;;;;;;;;4954754;28;20218;-63
2022/11/18 03:36:10;;;;;;;0.57;0.57;;;;;;;;;;4955327;28;20211;-63
2022/11/18 03:38:41;;;;;;;0.87;0.87;;;;;;;;;;4962815;28;20298;-63
2022/11/18 03:41:10;;;;;;;1.70;1.40;;;;;;;;;;4963479;28;20276;-63
2022/11/18 03:43:39;;;;;;;1.10;1.10;;;;;;;;;;4969597;28;20296;-63
2022/11/18 03:46:09;;;;;;;0.90;0.90;;;;;;;;;;4980252;28;20223;-63
2022/11/18 03:48:39;;;;;;;0.93;0.60;;;;;;;;;;4960492;28;20227;-64
2022/11/18 03:51:09;;;;;;;0.93;0.93;;;;;;;;;;4970810;28;20230;-63
2022/11/18 03:53:38;;;;;;;0.80;0.80;;;;;;;;;;4965606;28;20481;-63
2022/11/18 03:56:28;;;;;;;0.60;0.60;;;;;;;;;;4966735;28;20204;-63
2022/11/18 03:59:16;;;;;;;0.70;0.70;;;;;;;;;;4964667;28;20200;-64
2022/11/18 04:01:55;;;;;;;1.10;1.10;;;;;;;;;;4960143;28;20249;-62
2022/11/18 04:04:24;;;;;;;2.10;1.60;;;;;;;;;;4962886;28;20425;-62
2022/11/18 04:06:58;;;;;;;1.53;0.87;;;;;;;;;;4956709;28;20295;-61
2022/11/18 04:09:29;;;;;;;2.03;1.50;;;;;;;;;;4978562;28;20321;-63
2022/11/18 04:12:01;;;;;;;1.00;0.90;;;;;;;;;;4960790;28;20620;-61
2022/11/18 04:14:35;;;;;;;1.87;1.77;;;;;;;;;;4965265;28;20212;-62
2022/11/18 04:17:09;;;;;;;0.60;0.60;;;;;;;;;;4961083;28;20218;-61
2022/11/18 04:19:37;;;;;;;3.10;1.00;;;;;;;;;;4968222;28;20607;-62
2022/11/18 04:22:05;;;;;;;0.83;0.80;;;;;;;;;;4971931;28;20249;-62
2022/11/18 04:24:32;;;;;;;0.60;0.60;;;;;;;;;;4974792;28;20235;-63
2022/11/18 04:27:01;;;;;;;1.13;0.90;;;;;;;;;;4998174;28;20212;-63
2022/11/18 04:29:29;;;;;;;0.97;0.80;;;;;;;;;;4982434;28;20238;-63
2022/11/18 04:31:57;;;;;;;0.63;0.63;;;;;;;;;;4977308;28;20236;-63
2022/11/18 04:34:24;;;;;;;2.07;0.87;;;;;;;;;;4961885;28;20200;-63
2022/11/18 04:36:52;;;;;;;0.67;0.60;;;;;;;;;;4960778;28;20236;-62
2022/11/18 04:39:19;;;;;;;0.50;0.50;;;;;;;;;;4961413;28;20436;-62
2022/11/18 04:41:56;;;;;;;0.80;0.80;;;;;;;;;;4960768;28;20812;-61
2022/11/18 04:44:24;;;;;;;0.50;0.50;;;;;;;;;;4959785;28;20227;-63
2022/11/18 04:46:52;;;;;;;0.60;0.60;;;;;;;;;;4978720;28;20223;-62
2022/11/18 04:49:19;;;;;;;0.60;0.60;;;;;;;;;;4958425;28;20236;-63
2022/11/18 04:51:47;;;;;;;0.60;0.60;;;;;;;;;;4970561;28;20238;-62
2022/11/18 04:54:14;;;;;;;1.97;0.80;;;;;;;;;;4982476;28;20213;-63
2022/11/18 04:56:42;;;;;;;1.90;0.97;;;;;;;;;;4986858;28;20223;-61
2022/11/18 04:59:16;;;;;;;0.70;0.70;;;;;;;;;;4980276;28;20258;-62
2022/11/18 05:01:44;;;;;;;0.63;0.63;;;;;;;;;;4975194;28;20584;-62
2022/11/18 05:04:15;;;;;;;0.77;0.77;;;;;;;;;;4965897;28;20223;-63
2022/11/18 05:06:43;;;;;;;1.07;0.60;;;;;;;;;;4977994;28;20302;-63
2022/11/18 05:09:10;;;;;;;0.50;0.50;;;;;;;;;;4959686;28;20237;-63
2022/11/18 05:14:27;;;;;;;0.83;0.80;;;;;;;;;;4981505;28;20314;-60
2022/11/18 05:16:55;;;;;;;1.97;1.40;;;;;;;;;;4963687;28;20344;-63
2022/11/18 05:19:23;;;;;;;0.60;0.60;;;;;;;;;;4951413;28;20208;-62
2022/11/18 05:21:50;;;;;;;1.80;1.70;;;;;;;;;;4960356;28;20232;-61
2022/11/18 05:24:18;;;;;;;0.60;0.60;;;;;;;;;;4956603;28;20487;-63
2022/11/18 05:26:47;;;;;;;0.50;0.50;;;;;;;;;;4960679;28;20214;-62
2022/11/18 05:29:14;;;;;;;1.10;1.10;;;;;;;;;;4960108;28;20236;-63
2022/11/18 05:31:42;;;;;;;0.70;0.70;;;;;;;;;;4959948;28;20243;-61
2022/11/18 05:34:09;;;;;;;2.90;1.80;;;;;;;;;;4979280;28;20887;-61
2022/11/18 05:36:37;;;;;;;0.70;0.70;;;;;;;;;;4959277;28;20291;-62
2022/11/18 05:39:04;;;;;;;0.47;0.47;;;;;;;;;;4962921;28;20298;-61
2022/11/18 05:44:17;;;;;;;0.83;0.60;;;;;;;;;;4973558;28;20214;-62
2022/11/18 05:46:45;;;;;;;0.50;0.50;;;;;;;;;;4962927;28;20222;-63
2022/11/18 05:49:12;;;;;;;0.60;0.60;;;;;;;;;;4956476;28;20390;-63
2022/11/18 05:51:40;;;;;;;0.60;0.60;;;;;;;;;;4961810;28;20231;-63
2022/11/18 05:54:08;;;;;;;0.90;0.90;;;;;;;;;;4960300;28;20320;-61
2022/11/18 05:56:38;;;;;;;0.60;0.60;;;;;;;;;;4972039;28;20209;-63
2022/11/18 05:59:06;;;;;;;0.60;0.60;;;;;;;;;;4960541;28;20212;-63
2022/11/18 06:01:49;;;;;;;0.57;0.57;;;;;;;;;;4965823;28;20238;-61
2022/11/18 06:04:19;;;;;;;0.70;0.70;;;;;;;;;;4969453;28;20216;-64
2022/11/18 06:06:48;;;;;;;0.93;0.80;;;;;;;;;;4962253;28;20208;-63
2022/11/18 06:09:18;;;;;;;0.50;0.50;;;;;;;;;;4967512;28;20306;-62
2022/11/18 06:11:49;;;;;;;0.83;0.70;;;;;;;;;;4955132;28;20237;-62
2022/11/18 06:14:22;;;;;;;0.53;0.53;;;;;;;;;;4971309;28;20227;-62
2022/11/18 06:16:51;;;;;;;0.83;0.83;;;;;;;;;;4965573;28;20538;-63
2022/11/18 06:19:18;;;;;;;0.60;0.60;;;;;;;;;;4957971;28;20211;-61
2022/11/18 06:21:47;;;;;;;0.60;0.60;;;;;;;;;;4967001;28;20234;-63
2022/11/18 06:24:15;;;;;;;0.60;0.60;;;;;;;;;;4995705;28;20219;-63
2022/11/18 06:26:42;;;;;;;0.60;0.60;;;;;;;;;;4992298;28;20351;-62
2022/11/18 06:29:10;;;;;;;0.80;0.80;;;;;;;;;;4976003;28;20277;-63
2022/11/18 06:31:38;;;;;;;0.97;0.70;;;;;;;;;;4994916;28;20232;-63
2022/11/18 06:34:05;;;;;;;0.63;0.63;;;;;;;;;;4972132;28;20305;-63
2022/11/18 06:36:33;;;;;;;1.80;0.60;;;;;;;;;;4963857;28;20674;-61
2022/11/18 06:39:04;;;;;;;0.70;0.70;;;;;;;;;;4969552;28;20220;-62
2022/11/18 06:41:32;;;;;;;1.33;1.20;;;;;;;;;;4960367;28;20983;-63
2022/11/18 06:43:59;;;;;;;1.20;1.20;;;;;;;;;;4966921;28;20293;-63
2022/11/18 06:49:13;;;;;;;0.83;0.83;;;;;;;;;;4974685;28;20717;-63
2022/11/18 06:51:40;;;;;;;0.80;0.80;;;;;;;;;;4961411;28;20342;-63
2022/11/18 06:54:07;;;;;;;0.60;0.60;;;;;;;;;;4976451;28;20200;-61
2022/11/18 06:56:37;;;;;;;0.80;0.80;;;;;;;;;;4982716;28;20202;-61
2022/11/18 06:59:04;;;;;;;0.80;0.70;;;;;;;;;;4978499;28;20235;-63
2022/11/18 07:01:34;;;;;;;0.80;0.80;;;;;;;;;;4979816;28;20297;-62
2022/11/18 07:04:02;;;;;;;0.60;0.60;;;;;;;;;;4986238;28;20254;-63
2022/11/18 07:06:30;;;;;;;1.00;0.90;;;;;;;;;;4978791;28;20469;-64
2022/11/18 07:08:59;;;;;;;1.57;1.53;;;;;;;;;;4967083;28;20231;-61
2022/11/18 07:11:27;;;;;;;3.47;3.37;;;;;;;;;;4964646;28;20599;-61
2022/11/18 07:13:54;;;;;;;1.47;1.47;;;;;;;;;;4981040;28;20210;-62
2022/11/18 07:16:23;;;;;;;7.47;6.97;;;;;;;;;;4963543;28;20282;-62
2022/11/18 07:18:51;;;;;;;2.10;2.00;;;;;;;;;;4965019;28;20207;-63
2022/11/18 07:21:22;;;;;;;1.37;0.83;;;;;;;;;;4963162;28;20239;-62
2022/11/18 07:23:49;;;;;;;1.07;0.77;;;;;;;;;;4965057;28;20266;-62
2022/11/18 07:26:17;;;;;;;0.87;0.87;;;;;;;;;;4958557;28;20207;-62
2022/11/18 07:28:45;;;;;;;0.60;0.60;;;;;;;;;;4966032;28;20787;-63
2022/11/18 07:31:13;;;;;;;0.90;0.90;;;;;;;;;;4965286;28;20308;-63
2022/11/18 07:33:41;;;;;;;1.53;1.43;;;;;;;;;;4964147;28;20207;-64
2022/11/18 07:36:10;;;;;;;1.70;1.60;;;;;;;;;;4984712;28;20269;-63
2022/11/18 07:38:37;;;;;;;1.67;1.57;;;;;;;;;;4960026;28;20211;-63
2022/11/18 07:41:06;;;;;;;0.77;0.60;;;;;;;;;;4963756;28;20212;-62
2022/11/18 07:43:34;;;;;;;0.80;0.80;;;;;;;;;;4967690;28;20506;-63
2022/11/18 07:46:09;;;;;;;0.73;0.73;;;;;;;;;;4962769;28;20219;-63
2022/11/18 07:48:36;;;;;;;1.50;1.50;;;;;;;;;;4961175;28;20223;-63
2022/11/18 07:51:04;;;;;;;1.43;1.43;;;;;;;;;;4963433;28;20211;-63
2022/11/18 07:53:32;;;;;;;0.50;0.50;;;;;;;;;;4972020;28;20207;-62
2022/11/18 07:55:59;;;;;;;0.70;0.70;;;;;;;;;;4967960;28;20293;-63
2022/11/18 07:58:27;;;;;;;0.60;0.60;;;;;;;;;;4987914;28;20607;-64
2022/11/18 08:00:54;;;;;;;0.67;0.57;;;;;;;;;;4964442;28;20294;-61
2022/11/18 08:03:26;;;;;;;0.50;0.50;;;;;;;;;;4985442;28;20199;-62
2022/11/18 08:05:58;;;;;;;1.03;0.80;;;;;;;;;;4979862;28;20211;-62
2022/11/18 08:08:26;;;;;;;0.57;0.57;;;;;;;;;;4967138;28;20199;-61
2022/11/18 08:10:58;;;;;;;0.60;0.60;;;;;;;;;;4963245;28;21185;-64
2022/11/18 08:13:26;;;;;;;1.23;0.60;;;;;;;;;;4961379;28;20204;-61
2022/11/18 08:15:54;;;;;;;0.60;0.60;;;;;;;;;;4963185;28;20212;-62
2022/11/18 08:18:25;;;;;;;0.50;0.50;;;;;;;;;;4953803;28;21162;-63
2022/11/18 08:20:52;;;;;;;0.90;0.90;;;;;;;;;;4972223;28;20622;-62
2022/11/18 08:23:19;;;;;;;0.60;0.60;;;;;;;;;;4991817;28;20303;-61
2022/11/18 08:25:47;;;;;;;0.43;0.43;;;;;;;;;;4994374;28;20829;-61
2022/11/18 08:28:15;;;;;;;0.50;0.50;;;;;;;;;;4993679;28;20230;-63
2022/11/18 08:30:42;;;;;;;0.77;0.77;;;;;;;;;;4995564;28;20238;-63
2022/11/18 08:33:09;;;;;;;0.53;0.53;;;;;;;;;;4991323;28;20286;-63
2022/11/18 08:35:37;;;;;;;0.70;0.70;;;;;;;;;;4976179;28;20338;-64
2022/11/18 08:38:04;;;;;;;0.73;0.73;;;;;;;;;;4969918;28;21208;-63
2022/11/18 08:40:33;;;;;;;1.30;1.00;;;;;;;;;;4970122;28;20207;-63
2022/11/18 08:43:01;;;;;;;0.60;0.60;;;;;;;;;;4970575;28;20282;-63
2022/11/18 08:45:29;;;;;;;0.50;0.50;;;;;;;;;;4989750;28;20584;-62
2022/11/18 08:47:56;;;;;;;0.60;0.60;;;;;;;;;;4983274;28;20626;-64
2022/11/18 08:50:24;;;;;;;0.77;0.73;;;;;;;;;;4967401;28;20575;-63
2022/11/18 08:52:51;;;;;;;1.50;0.60;;;;;;;;;;4983386;28;20636;-63
2022/11/18 08:55:19;;;;;;;0.60;0.60;;;;;;;;;;4991826;28;20290;-61
2022/11/18 08:57:46;;;;;;;3.13;0.67;;;;;;;;;;4982840;28;20295;-63
2022/11/18 09:00:14;;;;;;;0.60;0.60;;;;;;;;;;4992069;28;20263;-63
2022/11/18 09:02:41;;;;;;;0.70;0.70;;;;;;;;;;4979772;28;20232;-63
2022/11/18 09:05:09;;;;;;;1.30;1.30;;;;;;;;;;4982462;28;20208;-62
2022/11/18 09:07:36;;;;;;;0.80;0.80;;;;;;;;;;4990335;28;20674;-62
2022/11/18 09:10:04;;;;;;;0.87;0.60;;;;;;;;;;4968965;28;20235;-64
2022/11/18 09:12:32;;;;;;;0.60;0.60;;;;;;;;;;4974350;28;20236;-64
2022/11/18 09:14:59;;;;;;;0.73;0.73;;;;;;;;;;4969093;28;20550;-61
2022/11/18 09:17:42;;;;;;;0.93;0.60;;;;;;;;;;4969872;28;20203;-63
2022/11/18 09:20:10;;;;;;;0.80;0.80;;;;;;;;;;4973187;28;20214;-63
2022/11/18 09:22:38;;;;;;;0.93;0.93;;;;;;;;;;4963344;28;20621;-63
2022/11/18 09:25:05;;;;;;;0.60;0.60;;;;;;;;;;4973201;28;20208;-63
2022/11/18 09:27:32;;;;;;;0.93;0.60;;;;;;;;;;4971609;28;20491;-63
2022/11/18 09:30:00;;;;;;;0.60;0.60;;;;;;;;;;4971578;28;20341;-62
2022/11/18 09:32:27;;;;;;;1.20;0.80;;;;;;;;;;4970764;28;20227;-64
2022/11/18 09:34:55;;;;;;;0.80;0.80;;;;;;;;;;4971419;28;20262;-62
2022/11/18 09:37:22;;;;;;;1.17;0.60;;;;;;;;;;4969846;28;20682;-62
2022/11/18 09:39:49;;;;;;;0.80;0.80;;;;;;;;;;4970035;28;20266;-63
2022/11/18 09:42:26;;;;;;;0.70;0.70;;;;;;;;;;4975424;28;20343;-61
2022/11/18 09:45:00;;;;;;;0.60;0.60;;;;;;;;;;4959684;28;20325;-63
2022/11/18 09:47:29;;;;;;;0.70;0.70;;;;;;;;;;4967770;28;20223;-62
2022/11/18 09:49:59;;;;;;;0.93;0.70;;;;;;;;;;4974406;28;20285;-61
2022/11/18 09:53:16;;;;;;;0.80;0.80;;;;;;;;;;4983647;28;20868;-64
2022/11/18 09:55:44;;;;;;;0.70;0.70;;;;;;;;;;4937841;28;20208;-61
2022/11/18 09:58:23;;;;;;;1.73;1.63;;;;;;;;;;4974832;28;20200;-62
2022/11/18 10:00:51;;;;;;;0.90;0.90;;;;;;;;;;4970403;28;20289;-62
2022/11/18 10:03:38;;;;;;;0.70;0.70;;;;;;;;;;4971560;28;20758;-62
2022/11/18 10:06:09;;;;;;;0.60;0.60;;;;;;;;;;4970028;28;20240;-63
2022/11/18 10:08:40;;;;;;;0.60;0.60;;;;;;;;;;4967396;28;20321;-62
2022/11/18 10:11:16;;;;;;;0.77;0.60;;;;;;;;;;4964290;28;20259;-62
2022/11/18 10:14:02;;;;;;;0.60;0.60;;;;;;;;;;4965184;28;20675;-64
2022/11/18 10:16:33;;;;;;;0.80;0.80;;;;;;;;;;4983857;28;20231;-62
2022/11/18 10:19:24;;;;;;;0.60;0.60;;;;;;;;;;4964750;28;20235;-62
2022/11/18 10:21:51;;;;;;;0.90;0.90;;;;;;;;;;4987064;28;20224;-62
2022/11/18 10:24:20;;;;;;;0.50;0.50;;;;;;;;;;5006679;28;20203;-62
2022/11/18 10:26:47;;;;;;;0.77;0.60;;;;;;;;;;5004155;28;20211;-61
2022/11/18 10:29:15;;;;;;;0.67;0.50;;;;;;;;;;4981460;28;20254;-63
2022/11/18 10:31:53;;;;;;;1.17;0.60;;;;;;;;;;4984865;28;21048;-62
2022/11/18 10:34:30;;;;;;;0.83;0.83;;;;;;;;;;4989783;28;20262;-64
2022/11/18 10:37:05;;;;;;;0.97;0.97;;;;;;;;;;4955700;28;20473;-64
2022/11/18 10:39:33;;;;;;;0.60;0.60;;;;;;;;;;4958559;28;20207;-63
2022/11/18 10:42:05;;;;;;;0.70;0.70;;;;;;;;;;4954593;28;20235;-63
2022/11/18 10:44:34;;;;;;;1.50;1.40;;;;;;;;;;4976151;28;20710;-63
2022/11/18 10:47:21;;;;;;;2.13;1.93;;;;;;;;;;4964227;28;20234;-63
2022/11/18 10:49:49;;;;;;;1.40;0.80;;;;;;;;;;4957355;28;20236;-62
2022/11/18 10:52:17;;;;;;;0.70;0.70;;;;;;;;;;4959118;28;20227;-62
2022/11/18 10:54:45;;;;;;;1.97;1.70;;;;;;;;;;4979031;28;20301;-61
2022/11/18 10:57:20;;;;;;;4.37;3.17;;;;;;;;;;4957137;28;20218;-62
2022/11/18 10:59:50;;;;;;;1.40;1.40;;;;;;;;;;4963762;28;20334;-63
2022/11/18 11:02:17;;;;;;;0.73;0.73;;;;;;;;;;4956140;28;20666;-63
2022/11/18 11:04:45;;;;;;;0.70;0.70;;;;;;;;;;4961616;28;20615;-63
2022/11/18 11:07:16;;;;;;;0.90;0.90;;;;;;;;;;4970623;28;20218;-63
2022/11/18 11:09:44;;;;;;;0.70;0.70;;;;;;;;;;4961313;28;20220;-62
2022/11/18 11:12:16;;;;;;;0.90;0.90;;;;;;;;;;4967328;28;20221;-63
2022/11/18 11:14:51;;;;;;;0.90;0.90;;;;;;;;;;4981725;28;20211;-63
2022/11/18 11:17:28;;;;;;;1.70;0.80;;;;;;;;;;4968838;28;20211;-63
2022/11/18 11:20:05;;;;;;;1.03;1.03;;;;;;;;;;4961340;28;20211;-63
2022/11/18 11:22:33;;;;;;;0.70;0.70;;;;;;;;;;4963516;28;20231;-63
2022/11/18 11:25:00;;;;;;;1.83;1.73;;;;;;;;;;4983490;28;20218;-63
2022/11/18 11:27:30;;;;;;;4.47;4.07;;;;;;;;;;4959823;28;20289;-63
2022/11/18 11:30:18;;;;;;;2.30;2.20;;;;;;;;;;4976191;28;20232;-63
2022/11/18 11:33:01;;;;;;;2.30;2.10;;;;;;;;;;4964597;28;20358;-63
2022/11/18 11:35:49;;;;;;;3.07;2.77;;;;;;;;;;4963140;28;20338;-63
2022/11/18 11:38:26;;;;;;;3.60;3.40;;;;;;;;;;4965902;28;21292;-63
2022/11/18 11:40:56;;;;;;;1.13;0.90;;;;;;;;;;4957173;28;20290;-63
2022/11/18 11:43:30;;;;;;;2.20;2.00;;;;;;;;;;4985764;28;20443;-63
2022/11/18 11:46:01;;;;;;;1.17;1.10;;;;;;;;;;4984253;28;20315;-63
2022/11/18 11:48:35;;;;;;;1.13;1.00;;;;;;;;;;4972544;28;21017;-63
2022/11/18 11:51:25;;;;;;;1.30;1.20;;;;;;;;;;4982107;28;20330;-63
2022/11/18 11:53:53;;;;;;;1.00;1.00;;;;;;;;;;4964437;28;21235;-63
2022/11/18 11:56:29;;;;;;;1.07;1.07;;;;;;;;;;4970836;28;20239;-63
2022/11/18 11:59:15;;;;;;;0.70;0.70;;;;;;;;;;4968572;28;20199;-63
2022/11/18 12:01:43;;;;;;;1.70;1.60;;;;;;;;;;4971126;28;20223;-63
2022/11/18 12:04:26;;;;;;;0.97;0.90;;;;;;;;;;4973449;28;20295;-61
2022/11/18 12:06:54;;;;;;;0.90;0.90;;;;;;;;;;4973611;28;20234;-63
2022/11/18 12:09:30;;;;;;;1.70;1.00;;;;;;;;;;4972497;28;20218;-62
2022/11/18 12:12:33;;;;;;;3.03;1.00;;;;;;;;;;4973329;28;20235;-62
2022/11/18 12:15:20;;;;;;;0.60;0.60;;;;;;;;;;4973105;28;20750;-67
2022/11/18 12:18:00;;;;;;;0.80;0.80;;;;;;;;;;4959589;28;20565;-62
2022/11/18 12:20:37;;;;;;;1.50;1.13;;;;;;;;;;4978534;28;20417;-63
2022/11/18 12:23:10;;;;;;;1.73;1.63;;;;;;;;;;4984669;28;20701;-64
2022/11/18 12:25:52;;;;;;;4.30;3.00;;;;;;;;;;4986133;28;20299;-62
2022/11/18 12:28:39;;;;;;;12.20;6.60;;;;;;;;;;4982087;28;20724;-62
2022/11/18 12:31:19;;;;;;;8.93;6.17;;;;;;;;;;4987002;28;20320;-63
2022/11/18 12:33:49;;;;;;;3.30;3.00;;;;;;;;;;4980148;28;20681;-62
2022/11/18 12:36:35;;;;;;;3.00;2.77;;;;;;;;;;4965608;28;20195;-62
2022/11/18 12:39:26;;;;;;;1.87;1.77;;;;;;;;;;4985705;28;20238;-64
2022/11/18 12:44:40;;;;;;;1.50;1.40;;;;;;;;;;5003394;28;20290;-63
2022/11/18 12:47:11;;;;;;;1.00;1.00;;;;;;;;;;5003387;28;20303;-63
2022/11/18 12:49:45;;;;;;;2.10;1.47;;;;;;;;;;4972270;28;20299;-63
2022/11/18 12:52:30;;;;;;;1.83;1.50;;;;;;;;;;4973199;28;21159;-63
2022/11/18 12:55:00;;;;;;;4.47;1.40;;;;;;;;;;4970588;28;20211;-63
2022/11/18 12:57:29;;;;;;;2.13;0.93;;;;;;;;;;4975397;28;20303;-62
2022/11/18 12:59:56;;;;;;;1.30;1.20;;;;;;;;;;4972577;28;20254;-63
2022/11/18 13:02:27;;;;;;;1.87;1.37;;;;;;;;;;4976037;28;20227;-62
2022/11/18 13:05:03;;;;;;;1.00;1.00;;;;;;;;;;4960671;28;22962;-62
2022/11/18 13:08:18;;;;;;;1.37;1.17;;;;;;;;;;4962035;28;20838;-63
2022/11/18 13:10:22;;;;;;;2.13;1.43;;;;;;;;;;4974032;28;20322;-63
2022/11/18 13:12:51;;;;;;;1.10;1.00;;;;;;;;;;4974778;28;20278;-63
2022/11/18 13:18:16;;;;;;;2.17;1.60;;;;;;;;;;4987551;28;20285;-61
2022/11/18 13:20:53;;;;;;;1.33;1.27;;;;;;;;;;4970823;28;20462;-63
2022/11/18 13:26:18;;;;;;;0.80;0.80;;;;;;;;;;4993624;28;20207;-63
2022/11/18 13:29:04;;;;;;;5.00;3.43;;;;;;;;;;4967676;28;20575;-64
2022/11/18 13:31:40;;;;;;;3.47;2.17;;;;;;;;;;4965135;28;20249;-63
2022/11/18 13:34:17;;;;;;;1.40;1.30;;;;;;;;;;4972231;28;20564;-63
2022/11/18 13:36:45;;;;;;;1.00;1.00;;;;;;;;;;4972207;28;20237;-63
2022/11/18 13:39:33;;;;;;;0.87;0.87;;;;;;;;;;4968760;28;20231;-63
2022/11/18 13:42:19;;;;;;;0.80;0.80;;;;;;;;;;4986045;28;20259;-63
2022/11/18 13:44:51;;;;;;;1.10;0.73;;;;;;;;;;4969808;28;20306;-63
2022/11/18 13:47:31;;;;;;;1.27;1.07;;;;;;;;;;4970691;28;20306;-63
2022/11/18 13:50:04;;;;;;;2.43;1.30;;;;;;;;;;4986370;28;22167;-64
2022/11/18 13:52:36;;;;;;;1.27;0.70;;;;;;;;;;4970069;28;20228;-62
2022/11/18 13:55:08;;;;;;;2.83;1.00;;;;;;;;;;4970168;28;20238;-62
2022/11/18 13:57:37;;;;;;;0.80;0.80;;;;;;;;;;4969142;28;20373;-64
2022/11/18 14:00:05;;;;;;;0.70;0.70;;;;;;;;;;4972057;28;20208;-62
2022/11/18 14:02:38;;;;;;;1.33;1.00;;;;;;;;;;4977343;28;20257;-62
2022/11/18 14:05:05;;;;;;;1.87;1.50;;;;;;;;;;4967793;28;20215;-62
2022/11/18 14:07:34;;;;;;;0.90;0.90;;;;;;;;;;4950226;28;20208;-64
2022/11/18 14:10:06;;;;;;;0.90;0.90;;;;;;;;;;4964302;28;20274;-62
2022/11/18 14:12:35;;;;;;;0.90;0.90;;;;;;;;;;4988892;28;20323;-64
2022/11/18 14:15:12;;;;;;;1.70;1.00;;;;;;;;;;4973295;28;20211;-62
2022/11/18 14:17:49;;;;;;;1.03;0.80;;;;;;;;;;4983963;28;20257;-62
2022/11/18 14:20:20;;;;;;;0.80;0.80;;;;;;;;;;4962378;28;20243;-62
2022/11/18 14:22:50;;;;;;;0.80;0.70;;;;;;;;;;4977263;28;20387;-64
2022/11/18 14:25:26;;;;;;;1.77;1.00;;;;;;;;;;4980785;28;20338;-62
2022/11/18 14:27:55;;;;;;;0.90;0.90;;;;;;;;;;4979494;28;20212;-62
2022/11/18 14:30:29;;;;;;;1.30;0.90;;;;;;;;;;4977532;28;20329;-62
2022/11/18 14:33:06;;;;;;;1.30;1.00;;;;;;;;;;4963891;28;20302;-62
2022/11/18 14:35:33;;;;;;;0.97;0.80;;;;;;;;;;4957908;28;20305;-64
2022/11/18 14:38:03;;;;;;;1.10;1.10;;;;;;;;;;4965859;28;20572;-62
2022/11/18 14:40:58;;;;;;;1.33;0.80;;;;;;;;;;4968504;28;20817;-63
2022/11/18 14:43:26;;;;;;;0.80;0.80;;;;;;;;;;4979630;28;20530;-63
2022/11/18 14:46:01;;;;;;;0.90;0.90;;;;;;;;;;4979609;28;20247;-63
2022/11/18 14:48:30;;;;;;;1.33;0.90;;;;;;;;;;4965264;28;20804;-62
2022/11/18 14:50:59;;;;;;;1.40;1.30;;;;;;;;;;4975777;28;20263;-63
2022/11/18 14:53:26;;;;;;;1.50;1.00;;;;;;;;;;4979288;28;20235;-64
2022/11/18 14:55:56;;;;;;;1.23;1.13;;;;;;;;;;4977244;28;20286;-63
2022/11/18 14:58:24;;;;;;;1.70;1.60;;;;;;;;;;4980792;28;20231;-63
2022/11/18 15:00:51;;;;;;;0.90;0.90;;;;;;;;;;4976037;28;20211;-63
2022/11/18 15:03:18;;;;;;;2.37;1.10;;;;;;;;;;4991467;28;20918;-63
2022/11/18 15:05:46;;;;;;;1.43;1.20;;;;;;;;;;4979541;28;20447;-63
2022/11/18 15:08:15;;;;;;;15.20;9.97;;;;;;;;;;4980821;28;20294;-63
2022/11/18 15:10:42;;;;;;;38.57;19.17;;;;;;;;;;4978694;28;20310;-63
2022/11/18 15:13:10;;;;;;;18.57;11.83;;;;;;;;;;4992363;28;20235;-63
2022/11/18 15:15:37;;;;;;;6.03;4.57;;;;;;;;;;4979170;28;20200;-63
2022/11/18 15:18:05;;;;;;;2.10;1.90;;;;;;;;;;4993576;28;20235;-61
2022/11/18 15:20:32;;;;;;;1.90;1.80;;;;;;;;;;4979079;28;20207;-63
2022/11/18 15:23:00;;;;;;;1.33;1.33;;;;;;;;;;4976230;28;20821;-62
2022/11/18 15:25:27;;;;;;;2.60;1.40;;;;;;;;;;4975787;28;20887;-62
2022/11/18 15:27:54;;;;;;;1.63;1.30;;;;;;;;;;4978372;28;20216;-62
2022/11/18 15:30:23;;;;;;;1.50;1.40;;;;;;;;;;4969546;28;20203;-63
2022/11/18 15:32:51;;;;;;;1.50;1.40;;;;;;;;;;4978118;28;20235;-63